Puerto Santa Cruz, Argentina
Current Conditions -  °F | °C
As of 11:00 PM on Monday 24 Nov 2014 (Local Time) from SAWG Reporting Station
Clear Clear  
Wind Chill: 40°   Ceiling: Unl
Heat Index: 48°   Visibility: 6mi
Dew Point: 28°   Wind: 30mph
Humidity: 46%   Direction: 250°WSW
Pressure: 29.47"   Gusts: 43mph
Location:  50.02°S, 68.52°W
Report Text: SAWG 250200Z 25026G37KT CAVOK 09/M02 Q0998
Loading
Personal Weather Stations






























Interactive Weather Map New forecast layout! Learn more

10-Day Weather Forecast

Advertisements
Track Severe Weather on mobile